createdAt,value
2022-08-28T00:00:02.747Z,44.18
2022-08-28T00:02:33.798Z,43.74
2022-08-28T00:05:01.602Z,43.56
2022-08-28T00:07:28.678Z,44.33
2022-08-28T00:09:55.239Z,43.53
2022-08-28T00:12:22.017Z,43.42
2022-08-28T00:14:48.566Z,43.85
2022-08-28T00:17:15.141Z,44.02
2022-08-28T00:19:41.768Z,44.21
2022-08-28T00:22:08.341Z,44.22
2022-08-28T00:24:35.058Z,43.92
2022-08-28T00:27:21.302Z,43.37
2022-08-28T00:29:47.846Z,43.73
2022-08-28T00:32:14.875Z,43.82
2022-08-28T00:34:41.414Z,43.36
2022-08-28T00:37:08.116Z,43.67
2022-08-28T00:39:34.662Z,43.90
2022-08-28T00:42:01.696Z,43.35
2022-08-28T00:44:28.946Z,43.55
2022-08-28T00:46:57.860Z,43.50
2022-08-28T00:49:28.489Z,43.05
2022-08-28T00:52:08.567Z,43.05
2022-08-28T00:54:56.832Z,43.21
2022-08-28T00:57:32.074Z,43.09
2022-08-28T00:59:58.750Z,43.11
2022-08-28T01:02:26.574Z,42.97
2022-08-28T01:04:54.367Z,42.59
2022-08-28T01:07:23.144Z,43.81
2022-08-28T01:09:53.461Z,43.55
2022-08-28T01:12:24.312Z,43.16
2022-08-28T01:14:55.330Z,43.17
2022-08-28T01:17:24.302Z,43.40
2022-08-28T01:19:57.412Z,43.61
2022-08-28T01:22:34.121Z,43.33
2022-08-28T01:25:03.238Z,43.60
2022-08-28T01:27:29.936Z,43.43
2022-08-28T01:29:57.493Z,43.57
2022-08-28T01:32:36.520Z,43.77
2022-08-28T01:35:04.686Z,43.49
2022-08-28T01:37:31.880Z,43.47
2022-08-28T01:39:58.837Z,43.73
2022-08-28T01:42:26.179Z,44.68
2022-08-28T01:44:54.402Z,44.29
2022-08-28T01:47:21.650Z,44.58
2022-08-28T01:49:49.142Z,43.92
2022-08-28T01:52:15.731Z,44.42
2022-08-28T01:54:42.287Z,44.41
2022-08-28T01:57:09.086Z,44.03
2022-08-28T01:59:36.205Z,43.66
2022-08-28T02:02:03.992Z,44.07
2022-08-28T02:04:32.400Z,45.10
2022-08-28T02:06:59.264Z,45.13
2022-08-28T02:09:25.894Z,46.00
2022-08-28T02:11:52.640Z,45.21
2022-08-28T02:14:19.308Z,45.33
2022-08-28T02:16:46.474Z,45.12
2022-08-28T02:19:13.072Z,45.81
2022-08-28T02:21:40.014Z,45.13
2022-08-28T02:24:07.139Z,46.23
2022-08-28T02:26:34.558Z,45.61
2022-08-28T02:29:01.404Z,45.74
2022-08-28T02:31:28.159Z,45.46
2022-08-28T02:33:55.808Z,45.89
2022-08-28T02:36:23.110Z,45.41
2022-08-28T02:38:56.827Z,45.41
2022-08-28T02:41:24.754Z,45.45
2022-08-28T02:43:51.666Z,44.97
2022-08-28T02:46:18.233Z,45.58
2022-08-28T02:48:45.547Z,45.62
2022-08-28T02:51:14.166Z,45.57
2022-08-28T02:53:42.026Z,46.11
2022-08-28T02:56:09.595Z,45.46
2022-08-28T02:58:36.476Z,45.51
2022-08-28T03:01:06.974Z,45.60
2022-08-28T03:03:34.304Z,45.01
2022-08-28T03:06:02.481Z,45.47
2022-08-28T03:08:30.042Z,45.70
2022-08-28T03:10:56.867Z,45.87
2022-08-28T03:13:27.064Z,45.17
2022-08-28T03:15:55.786Z,45.32
2022-08-28T03:18:24.360Z,45.91
2022-08-28T03:20:52.779Z,45.70
2022-08-28T03:23:28.604Z,45.85
2022-08-28T03:26:02.451Z,45.99
2022-08-28T03:28:33.026Z,45.95
2022-08-28T03:30:59.720Z,45.53
2022-08-28T03:33:27.134Z,45.61
2022-08-28T03:35:55.125Z,45.46
2022-08-28T03:38:22.306Z,46.20
2022-08-28T03:40:53.411Z,46.63
2022-08-28T03:43:22.376Z,45.44
2022-08-28T03:45:59.763Z,45.24
2022-08-28T03:48:35.839Z,45.63
2022-08-28T03:51:07.763Z,45.08
2022-08-28T03:53:34.927Z,45.01
2022-08-28T03:56:07.921Z,45.04
2022-08-28T03:58:34.547Z,44.78
2022-08-28T04:01:01.204Z,45.34
2022-08-28T04:03:28.132Z,44.96
2022-08-28T04:05:54.775Z,44.21
2022-08-28T04:08:22.602Z,44.67
2022-08-28T04:10:49.448Z,45.04
2022-08-28T04:13:18.783Z,44.54
2022-08-28T04:15:46.484Z,44.82
2022-08-28T04:18:13.473Z,44.37
2022-08-28T04:20:40.123Z,45.16
2022-08-28T04:23:09.778Z,44.74
2022-08-28T04:25:40.380Z,44.52
2022-08-28T04:28:06.952Z,44.22
2022-08-28T04:30:33.489Z,44.30
2022-08-28T04:33:00.060Z,44.59
2022-08-28T04:35:26.979Z,45.10
2022-08-28T04:37:55.538Z,45.38
2022-08-28T04:40:24.824Z,45.76
2022-08-28T04:42:51.683Z,44.78
2022-08-28T04:45:18.225Z,44.42
2022-08-28T04:47:44.842Z,44.54
2022-08-28T04:50:11.773Z,45.81
2022-08-28T04:52:38.393Z,44.76
2022-08-28T04:55:05.334Z,44.43
2022-08-28T04:57:36.101Z,44.70
2022-08-28T05:00:05.737Z,44.87
2022-08-28T05:02:32.740Z,45.30
2022-08-28T05:04:59.282Z,44.95
2022-08-28T05:07:25.854Z,44.73
2022-08-28T05:09:54.130Z,45.52
2022-08-28T05:12:20.823Z,45.38
2022-08-28T05:14:48.220Z,46.12
2022-08-28T05:17:15.270Z,44.86
2022-08-28T05:19:42.248Z,45.32
2022-08-28T05:22:11.667Z,44.48
2022-08-28T05:24:40.119Z,44.29
2022-08-28T05:27:07.521Z,44.99
2022-08-28T05:29:34.061Z,44.84
2022-08-28T05:32:01.180Z,46.12
2022-08-28T05:34:27.915Z,45.51
2022-08-28T05:36:54.554Z,45.02
2022-08-28T05:39:21.314Z,45.28
2022-08-28T05:41:48.058Z,44.93
2022-08-28T05:44:17.034Z,44.83
2022-08-28T05:46:47.824Z,44.74
2022-08-28T05:49:14.935Z,44.98
2022-08-28T05:51:42.658Z,45.23
2022-08-28T05:54:10.662Z,45.47
2022-08-28T05:56:40.425Z,44.97
2022-08-28T05:59:08.755Z,45.78
2022-08-28T06:01:39.674Z,46.53
2022-08-28T06:04:11.002Z,46.71
2022-08-28T06:06:39.699Z,46.01
2022-08-28T06:09:15.571Z,45.74
2022-08-28T06:11:46.215Z,45.06
2022-08-28T06:14:16.568Z,44.57
2022-08-28T06:16:47.191Z,43.17
2022-08-28T06:19:14.809Z,43.43
2022-08-28T06:21:41.790Z,41.83
2022-08-28T06:24:09.853Z,40.88
2022-08-28T06:26:36.802Z,39.41
2022-08-28T06:29:07.656Z,37.91
2022-08-28T06:31:34.975Z,35.82
2022-08-28T06:34:02.082Z,35.05
2022-08-28T06:36:31.250Z,34.61
2022-08-28T06:38:59.556Z,34.52
2022-08-28T06:41:27.286Z,33.71
2022-08-28T06:43:54.694Z,32.29
2022-08-28T06:46:21.953Z,30.42
2022-08-28T06:48:48.698Z,30.02
2022-08-28T06:51:15.254Z,30.11
2022-08-28T06:53:45.721Z,29.67
2022-08-28T06:56:25.698Z,29.75
2022-08-28T06:58:53.774Z,29.66
2022-08-28T07:01:24.098Z,28.47
2022-08-28T07:03:53.653Z,27.79
2022-08-28T07:06:22.127Z,26.99
2022-08-28T07:08:49.920Z,26.46
2022-08-28T07:11:29.088Z,25.76
2022-08-28T07:13:57.512Z,24.97
2022-08-28T07:16:28.017Z,25.23
2022-08-28T07:18:55.078Z,26.32
2022-08-28T07:21:22.092Z,27.37
2022-08-28T07:23:48.794Z,26.92
2022-08-28T07:26:19.120Z,27.81
2022-08-28T07:28:46.372Z,27.82
2022-08-28T07:31:19.065Z,27.23
2022-08-28T07:33:46.113Z,27.32
2022-08-28T07:36:29.593Z,27.21
2022-08-28T07:38:58.878Z,26.98
2022-08-28T07:41:28.620Z,28.17
2022-08-28T07:44:13.882Z,27.82
2022-08-28T07:46:41.177Z,26.39
2022-08-28T07:49:08.727Z,25.96
2022-08-28T07:51:36.149Z,25.86
2022-08-28T07:54:03.889Z,25.97
2022-08-28T07:56:31.717Z,25.21
2022-08-28T07:59:03.262Z,24.89
2022-08-28T08:01:31.372Z,25.25
2022-08-28T08:04:01.656Z,25.26
2022-08-28T08:06:33.828Z,24.79
2022-08-28T08:09:01.792Z,26.16
2022-08-28T08:11:28.396Z,26.79
2022-08-28T08:14:03.814Z,25.67
2022-08-28T08:16:41.187Z,26.73
2022-08-28T08:19:10.373Z,27.84
2022-08-28T08:21:37.762Z,27.38
2022-08-28T08:24:04.746Z,27.93
2022-08-28T08:26:31.494Z,27.17
2022-08-28T08:28:58.831Z,26.43
2022-08-28T08:31:32.374Z,26.94
2022-08-28T08:34:02.425Z,27.42
2022-08-28T08:36:30.690Z,27.84
2022-08-28T08:39:00.338Z,29.26
2022-08-28T08:41:31.641Z,29.30
2022-08-28T08:44:08.810Z,29.19
2022-08-28T08:46:46.229Z,30.26
2022-08-28T08:49:22.579Z,30.17
2022-08-28T08:52:13.273Z,27.96
2022-08-28T08:54:45.396Z,28.92
2022-08-28T08:57:14.786Z,27.63
2022-08-28T08:59:41.801Z,28.84
2022-08-28T09:02:18.060Z,30.16
2022-08-28T09:04:50.440Z,29.67
2022-08-28T09:07:26.047Z,30.15
2022-08-28T09:09:57.784Z,31.07
2022-08-28T09:12:29.319Z,30.79
2022-08-28T09:15:09.782Z,30.60
2022-08-28T09:17:47.977Z,30.82
2022-08-28T09:20:32.504Z,30.42
2022-08-28T09:23:00.566Z,30.89
2022-08-28T09:25:44.437Z,30.78
2022-08-28T09:28:34.235Z,31.27
2022-08-28T09:31:13.681Z,32.31
2022-08-28T09:33:48.730Z,32.09
2022-08-28T09:36:27.862Z,32.96
2022-08-28T09:39:13.142Z,33.47
2022-08-28T09:42:06.801Z,33.27
2022-08-28T09:44:33.795Z,33.58
2022-08-28T09:47:01.241Z,32.22
2022-08-28T09:49:30.152Z,32.17
2022-08-28T09:52:01.919Z,31.98
2022-08-28T09:54:40.324Z,33.48
2022-08-28T09:57:08.366Z,33.16
2022-08-28T09:59:34.947Z,33.17
2022-08-28T10:02:24.387Z,33.36
2022-08-28T10:05:10.691Z,33.23
2022-08-28T10:07:53.197Z,32.43
2022-08-28T10:10:41.546Z,31.57
2022-08-28T10:13:27.301Z,32.42
2022-08-28T10:16:23.312Z,32.05
2022-08-28T10:19:19.578Z,33.03
2022-08-28T10:22:10.758Z,34.50
2022-08-28T10:24:54.293Z,35.27
2022-08-28T10:27:59.608Z,35.38
2022-08-28T10:30:30.869Z,35.25
2022-08-28T10:33:41.165Z,34.88
2022-08-28T10:36:28.755Z,34.46
2022-08-28T10:39:22.462Z,34.19
2022-08-28T10:41:54.475Z,34.28
2022-08-28T10:44:33.598Z,33.62
2022-08-28T10:47:03.180Z,33.14
2022-08-28T10:49:40.982Z,33.29
2022-08-28T10:52:32.521Z,31.48
2022-08-28T10:55:12.551Z,31.45
2022-08-28T10:57:57.495Z,31.47
2022-08-28T11:00:26.714Z,31.66
2022-08-28T11:03:01.473Z,32.17
2022-08-28T11:05:33.623Z,31.88
2022-08-28T11:08:07.463Z,31.93
2022-08-28T11:10:37.457Z,32.02
2022-08-28T11:13:07.061Z,31.44
2022-08-28T11:15:37.121Z,31.86
2022-08-28T11:18:25.288Z,32.32
2022-08-28T11:21:16.774Z,32.48
2022-08-28T11:23:58.970Z,31.83
2022-08-28T11:26:35.374Z,33.43
2022-08-28T11:29:04.526Z,33.22
2022-08-28T11:31:35.134Z,32.91
2022-08-28T11:34:02.850Z,33.53
2022-08-28T11:36:30.266Z,33.71
2022-08-28T11:38:57.594Z,33.71
2022-08-28T11:41:27.992Z,34.13
2022-08-28T11:44:09.895Z,32.03
2022-08-28T11:46:42.511Z,32.91
2022-08-28T11:49:29.475Z,31.53
2022-08-28T11:52:02.951Z,31.83
2022-08-28T11:55:15.066Z,31.92
2022-08-28T12:00:51.005Z,33.17
2022-08-28T12:03:37.857Z,34.00
2022-08-28T12:06:07.271Z,33.35
2022-08-28T12:08:48.921Z,33.21
2022-08-28T12:11:40.348Z,33.04
2022-08-28T12:14:25.723Z,32.19
2022-08-28T12:16:58.193Z,31.94
2022-08-28T12:19:55.491Z,32.31
2022-08-28T12:22:26.835Z,32.45
2022-08-28T12:25:04.394Z,31.67
2022-08-28T12:27:31.863Z,31.57
2022-08-28T12:30:02.207Z,32.18
2022-08-28T12:32:40.972Z,32.25
2022-08-28T12:35:23.976Z,33.00
2022-08-28T12:37:53.607Z,32.90
2022-08-28T12:40:27.447Z,31.81
2022-08-28T12:43:00.252Z,32.08
2022-08-28T12:45:34.988Z,31.83
2022-08-28T12:48:10.550Z,32.61
2022-08-28T12:50:38.971Z,32.41
2022-08-28T12:53:12.520Z,33.68
2022-08-28T12:55:39.992Z,34.41
2022-08-28T12:58:27.059Z,33.86
2022-08-28T13:00:59.547Z,32.27
2022-08-28T13:03:26.544Z,33.44
2022-08-28T13:06:09.238Z,32.79
2022-08-28T13:08:37.472Z,32.46
2022-08-28T13:11:04.983Z,34.17
2022-08-28T13:13:37.497Z,34.76
2022-08-28T13:16:08.104Z,35.08
2022-08-28T13:18:44.163Z,34.28
2022-08-28T13:21:32.960Z,34.03
2022-08-28T13:24:21.107Z,33.44
2022-08-28T13:27:03.923Z,33.45
2022-08-28T13:29:32.345Z,33.19
2022-08-28T13:32:04.912Z,33.92
2022-08-28T13:34:34.738Z,31.83
2022-08-28T13:37:04.271Z,31.63
2022-08-28T13:39:38.953Z,32.09
2022-08-28T13:42:11.894Z,32.65
2022-08-28T13:44:48.465Z,32.60
2022-08-28T13:47:15.763Z,32.63
2022-08-28T13:49:43.110Z,31.92
2022-08-28T13:52:10.512Z,31.76
2022-08-28T13:54:39.177Z,31.83
2022-08-28T13:57:10.588Z,33.79
2022-08-28T13:59:37.125Z,33.08
2022-08-28T14:02:24.955Z,33.12
2022-08-28T14:04:51.573Z,34.12
2022-08-28T14:07:18.539Z,33.25
2022-08-28T14:09:46.142Z,34.15
2022-08-28T14:12:12.661Z,33.72
2022-08-28T14:14:40.137Z,33.85
2022-08-28T14:17:08.497Z,33.45
2022-08-28T14:19:35.825Z,33.98
2022-08-28T14:22:03.919Z,33.76
2022-08-28T14:24:31.184Z,33.59
2022-08-28T14:26:57.733Z,34.26
2022-08-28T14:29:24.837Z,34.06
2022-08-28T14:31:51.467Z,33.42
2022-08-28T14:34:22.516Z,33.21
2022-08-28T14:36:55.192Z,33.55
2022-08-28T14:39:26.495Z,33.33
2022-08-28T14:41:54.684Z,33.34
2022-08-28T14:44:23.120Z,33.32
2022-08-28T14:46:52.720Z,33.43
2022-08-28T14:49:25.610Z,32.59
2022-08-28T14:51:54.230Z,32.86
2022-08-28T14:54:24.255Z,32.70
2022-08-28T14:56:52.046Z,33.73
2022-08-28T14:59:24.439Z,33.70
2022-08-28T15:01:52.773Z,33.25
2022-08-28T15:04:22.856Z,33.14
2022-08-28T15:06:51.507Z,33.38
2022-08-28T15:09:19.417Z,33.87
2022-08-28T15:11:46.691Z,33.19
2022-08-28T15:14:13.410Z,32.68
2022-08-28T15:16:44.129Z,33.35
2022-08-28T15:19:13.218Z,32.83
2022-08-28T15:21:49.457Z,34.22
2022-08-28T15:24:19.093Z,33.75
2022-08-28T15:26:46.776Z,33.26
2022-08-28T15:29:13.830Z,33.72
2022-08-28T15:31:43.760Z,33.72
2022-08-28T15:34:18.511Z,34.38
2022-08-28T15:36:50.959Z,34.35
2022-08-28T15:39:41.902Z,35.06
2022-08-28T15:42:09.365Z,34.52
2022-08-28T15:44:36.154Z,34.56
2022-08-28T15:47:04.769Z,35.11
2022-08-28T15:49:36.099Z,33.85
2022-08-28T15:52:10.882Z,34.51
2022-08-28T15:54:38.275Z,34.40
2022-08-28T15:57:05.070Z,34.66
2022-08-28T15:59:39.987Z,34.56
2022-08-28T16:02:22.762Z,34.73
2022-08-28T16:04:49.688Z,33.88
2022-08-28T16:07:17.427Z,32.64
2022-08-28T16:09:44.822Z,32.88
2022-08-28T16:12:11.356Z,34.11
2022-08-28T16:14:38.033Z,34.53
2022-08-28T16:17:05.766Z,34.12
2022-08-28T16:19:39.778Z,34.14
2022-08-28T16:22:06.866Z,34.83
2022-08-28T16:24:33.751Z,35.35
2022-08-28T16:27:00.325Z,35.29
2022-08-28T16:29:28.480Z,35.70
2022-08-28T16:31:56.532Z,35.90
2022-08-28T16:34:26.088Z,35.18
2022-08-28T16:36:54.884Z,35.23
2022-08-28T16:39:21.794Z,36.18
2022-08-28T16:41:50.120Z,36.36
2022-08-28T16:44:21.569Z,35.88
2022-08-28T16:46:48.819Z,36.98
2022-08-28T16:49:15.921Z,36.17
2022-08-28T16:51:42.473Z,35.76
2022-08-28T16:54:09.463Z,36.24
2022-08-28T16:56:36.963Z,37.70
2022-08-28T16:59:04.003Z,37.10
2022-08-28T17:01:40.804Z,38.02
2022-08-28T17:04:09.590Z,39.09
2022-08-28T17:06:36.157Z,39.28
2022-08-28T17:09:03.080Z,39.24
2022-08-28T17:11:29.707Z,39.31
2022-08-28T17:13:56.692Z,39.30
2022-08-28T17:16:25.291Z,39.62
2022-08-28T17:18:52.735Z,40.12
2022-08-28T17:21:39.837Z,39.14
2022-08-28T17:24:07.138Z,40.47
2022-08-28T17:26:34.547Z,39.93
2022-08-28T17:29:01.093Z,40.38
2022-08-28T17:31:27.686Z,39.83
2022-08-28T17:33:54.314Z,39.94
2022-08-28T17:36:33.607Z,39.81
2022-08-28T17:39:03.802Z,39.30
2022-08-28T17:41:30.473Z,39.13
2022-08-28T17:43:57.096Z,39.49
2022-08-28T17:46:23.645Z,38.89
2022-08-28T17:48:55.800Z,38.31
2022-08-28T17:51:33.099Z,39.23
2022-08-28T17:54:13.398Z,38.75
2022-08-28T17:56:40.654Z,39.11
2022-08-28T17:59:07.651Z,39.43
2022-08-28T18:01:36.053Z,38.66
2022-08-28T18:04:03.191Z,39.45
2022-08-28T18:06:29.721Z,38.86
2022-08-28T18:08:56.428Z,38.45
2022-08-28T18:11:23.760Z,38.49
2022-08-28T18:13:50.355Z,38.29
2022-08-28T18:16:17.526Z,39.75
2022-08-28T18:18:45.159Z,37.84
2022-08-28T18:21:13.300Z,38.31
2022-08-28T18:23:40.538Z,37.91
2022-08-28T18:26:08.443Z,38.04
2022-08-28T18:28:36.627Z,37.42
2022-08-28T18:31:05.942Z,37.61
2022-08-28T18:33:33.194Z,36.96
2022-08-28T18:35:59.867Z,37.30
2022-08-28T18:38:28.380Z,36.47
2022-08-28T18:40:55.935Z,36.69
2022-08-28T18:43:23.935Z,36.66
2022-08-28T18:45:51.384Z,36.97
2022-08-28T18:48:19.153Z,36.61
2022-08-28T18:50:47.941Z,36.82
2022-08-28T18:53:15.840Z,36.59
2022-08-28T18:55:43.161Z,36.15
2022-08-28T18:58:10.396Z,36.46
2022-08-28T19:00:42.978Z,37.09
2022-08-28T19:03:09.858Z,36.49
2022-08-28T19:05:37.782Z,36.85
2022-08-28T19:08:04.887Z,36.73
2022-08-28T19:10:34.366Z,36.67
2022-08-28T19:13:02.138Z,36.58
2022-08-28T19:15:29.130Z,37.05
2022-08-28T19:17:56.483Z,37.10
2022-08-28T19:20:23.492Z,37.53
2022-08-28T19:22:50.042Z,37.21
2022-08-28T19:25:22.506Z,37.13
2022-08-28T19:27:59.741Z,37.34
2022-08-28T19:30:28.857Z,37.09
2022-08-28T19:32:55.885Z,37.23
2022-08-28T19:35:24.567Z,37.17
2022-08-28T19:37:52.665Z,37.24
2022-08-28T19:40:20.773Z,37.78
2022-08-28T19:42:47.936Z,37.66
2022-08-28T19:45:15.083Z,38.17
2022-08-28T19:47:41.843Z,38.53
2022-08-28T19:50:11.011Z,38.72
2022-08-28T19:52:38.747Z,38.53
2022-08-28T19:55:06.690Z,38.32
2022-08-28T19:57:33.837Z,38.66
2022-08-28T20:00:00.497Z,38.17
2022-08-28T20:02:28.674Z,38.03
2022-08-28T20:04:55.512Z,38.36
2022-08-28T20:07:23.461Z,38.33
2022-08-28T20:09:50.601Z,38.39
2022-08-28T20:12:17.594Z,38.73
2022-08-28T20:14:44.584Z,38.33
2022-08-28T20:17:11.638Z,37.88
2022-08-28T20:19:38.490Z,38.50
2022-08-28T20:22:05.270Z,38.34
2022-08-28T20:24:31.880Z,38.55
2022-08-28T20:26:59.497Z,39.02
2022-08-28T20:29:26.526Z,38.77
2022-08-28T20:31:54.077Z,38.84
2022-08-28T20:34:21.322Z,38.16
2022-08-28T20:36:48.882Z,38.19
2022-08-28T20:39:16.037Z,38.79
2022-08-28T20:41:44.284Z,39.10
2022-08-28T20:44:12.924Z,38.83
2022-08-28T20:46:41.971Z,39.15
2022-08-28T20:49:11.105Z,38.82
2022-08-28T20:51:56.748Z,39.01
2022-08-28T20:54:37.141Z,38.89
2022-08-28T20:57:08.117Z,39.00
2022-08-28T20:59:40.207Z,39.07
2022-08-28T21:02:10.994Z,39.00
2022-08-28T21:04:39.309Z,38.47
2022-08-28T21:07:06.047Z,38.88
2022-08-28T21:09:39.538Z,39.15
2022-08-28T21:12:20.244Z,39.42
2022-08-28T21:14:51.478Z,38.70
2022-08-28T21:17:22.644Z,39.00
2022-08-28T21:19:58.613Z,38.78
2022-08-28T21:22:25.609Z,39.33
2022-08-28T21:24:52.145Z,38.98
2022-08-28T21:27:18.843Z,38.97
2022-08-28T21:29:46.026Z,39.28
2022-08-28T21:32:12.834Z,39.42
2022-08-28T21:34:39.607Z,39.60
2022-08-28T21:37:06.802Z,39.19
2022-08-28T21:39:34.870Z,39.50
2022-08-28T21:42:01.722Z,39.06
2022-08-28T21:44:28.999Z,39.20
2022-08-28T21:46:55.691Z,40.01
2022-08-28T21:49:22.984Z,39.42
2022-08-28T21:51:50.567Z,39.37
2022-08-28T21:54:19.558Z,39.93
2022-08-28T21:56:46.819Z,39.91
2022-08-28T21:59:17.170Z,39.28
2022-08-28T22:01:44.631Z,39.39
2022-08-28T22:04:11.472Z,39.91
2022-08-28T22:06:39.870Z,39.88
2022-08-28T22:09:07.600Z,40.10
2022-08-28T22:11:34.832Z,40.23
2022-08-28T22:14:01.474Z,40.45
2022-08-28T22:16:28.427Z,40.25
2022-08-28T22:18:55.160Z,40.33
2022-08-28T22:21:43.935Z,41.22
2022-08-28T22:24:12.091Z,40.91
2022-08-28T22:26:40.034Z,40.49
2022-08-28T22:29:07.881Z,40.41
2022-08-28T22:31:35.269Z,40.16
2022-08-28T22:34:04.263Z,40.90
2022-08-28T22:36:33.038Z,40.74
2022-08-28T22:38:59.618Z,41.13
2022-08-28T22:41:26.706Z,41.27
2022-08-28T22:43:53.271Z,40.94
2022-08-28T22:46:21.063Z,40.95
2022-08-28T22:48:48.562Z,40.76
2022-08-28T22:51:18.404Z,40.84
2022-08-28T22:53:47.002Z,41.42
2022-08-28T22:56:14.167Z,41.18
2022-08-28T22:58:40.736Z,41.19
2022-08-28T23:01:20.536Z,41.46
2022-08-28T23:03:48.336Z,41.24
2022-08-28T23:06:15.743Z,41.11
2022-08-28T23:08:42.437Z,41.11
2022-08-28T23:11:10.402Z,40.58
2022-08-28T23:13:37.588Z,41.45
2022-08-28T23:16:04.484Z,41.88
2022-08-28T23:18:46.285Z,40.85
2022-08-28T23:21:19.712Z,41.10
2022-08-28T23:23:46.707Z,41.18
2022-08-28T23:26:14.910Z,41.73
2022-08-28T23:28:43.193Z,42.28
2022-08-28T23:31:10.153Z,41.54
2022-08-28T23:33:37.222Z,41.52
2022-08-28T23:36:04.522Z,41.53
2022-08-28T23:38:31.300Z,41.94
2022-08-28T23:40:58.508Z,42.41
2022-08-28T23:43:25.347Z,43.03
2022-08-28T23:45:52.106Z,42.99
2022-08-28T23:48:18.910Z,42.38
2022-08-28T23:50:45.510Z,42.06
2022-08-28T23:53:12.078Z,41.91
2022-08-28T23:55:39.017Z,41.94
2022-08-28T23:58:06.412Z,42.29
